sensor_id;sensor_type;location;lat;lon;timestamp;pressure;altitude;pressure_sealevel;temperature;humidity
25658;BME280;13517;59.320;18.042;2023-12-20T00:00:53;99070.22;;;-0.48;100.00
25658;BME280;13517;59.320;18.042;2023-12-20T00:03:19;99065.38;;;-0.58;100.00
25658;BME280;13517;59.320;18.042;2023-12-20T00:05:45;99062.94;;;-0.62;100.00
25658;BME280;13517;59.320;18.042;2023-12-20T00:08:10;99067.28;;;-0.61;100.00
25658;BME280;13517;59.320;18.042;2023-12-20T00:10:36;99056.25;;;-0.71;100.00
25658;BME280;13517;59.320;18.042;2023-12-20T00:13:01;99059.09;;;-0.76;100.00
25658;BME280;13517;59.320;18.042;2023-12-20T00:15:26;99066.78;;;-0.70;100.00
25658;BME280;13517;59.320;18.042;2023-12-20T00:17:52;99071.81;;;-0.63;100.00
25658;BME280;13517;59.320;18.042;2023-12-20T00:20:17;99073.75;;;-0.67;100.00
25658;BME280;13517;59.320;18.042;2023-12-20T00:22:42;99037.72;;;-0.92;100.00
25658;BME280;13517;59.320;18.042;2023-12-20T00:25:08;99068.00;;;-0.77;100.00
25658;BME280;13517;59.320;18.042;2023-12-20T00:27:33;99067.91;;;-0.75;100.00
25658;BME280;13517;59.320;18.042;2023-12-20T00:29:59;99031.97;;;-1.02;100.00
25658;BME280;13517;59.320;18.042;2023-12-20T00:32:25;99057.66;;;-0.83;100.00
25658;BME280;13517;59.320;18.042;2023-12-20T00:34:50;99052.56;;;-0.88;100.00
25658;BME280;13517;59.320;18.042;2023-12-20T00:37:16;99049.25;;;-0.93;100.00
25658;BME280;13517;59.320;18.042;2023-12-20T00:39:41;99031.22;;;-1.05;100.00
25658;BME280;13517;59.320;18.042;2023-12-20T00:42:07;99058.59;;;-0.84;100.00
25658;BME280;13517;59.320;18.042;2023-12-20T00:44:33;99059.59;;;-0.87;100.00
25658;BME280;13517;59.320;18.042;2023-12-20T00:46:58;99017.19;;;-1.07;100.00
25658;BME280;13517;59.320;18.042;2023-12-20T00:49:23;99039.44;;;-0.91;100.00
25658;BME280;13517;59.320;18.042;2023-12-20T00:51:49;99016.22;;;-1.05;100.00
25658;BME280;13517;59.320;18.042;2023-12-20T00:54:16;99034.50;;;-0.99;100.00
25658;BME280;13517;59.320;18.042;2023-12-20T00:56:41;99036.00;;;-0.93;100.00
25658;BME280;13517;59.320;18.042;2023-12-20T00:59:06;99036.84;;;-0.92;100.00
25658;BME280;13517;59.320;18.042;2023-12-20T01:01:32;99023.94;;;-1.00;100.00
25658;BME280;13517;59.320;18.042;2023-12-20T01:03:58;99041.41;;;-0.96;100.00
25658;BME280;13517;59.320;18.042;2023-12-20T01:06:24;99052.16;;;-0.99;100.00
25658;BME280;13517;59.320;18.042;2023-12-20T01:08:49;99050.50;;;-1.02;100.00
25658;BME280;13517;59.320;18.042;2023-12-20T01:11:14;99057.41;;;-0.98;100.00
25658;BME280;13517;59.320;18.042;2023-12-20T01:13:40;99029.25;;;-1.21;100.00
25658;BME280;13517;59.320;18.042;2023-12-20T01:16:06;99058.59;;;-1.05;100.00
25658;BME280;13517;59.320;18.042;2023-12-20T01:18:31;99057.78;;;-1.07;100.00
25658;BME280;13517;59.320;18.042;2023-12-20T01:21:01;99055.13;;;-1.07;100.00
25658;BME280;13517;59.320;18.042;2023-12-20T01:23:28;99029.19;;;-1.19;100.00
25658;BME280;13517;59.320;18.042;2023-12-20T01:25:53;99015.56;;;-1.31;100.00
25658;BME280;13517;59.320;18.042;2023-12-20T01:28:19;99019.00;;;-1.29;100.00
25658;BME280;13517;59.320;18.042;2023-12-20T01:30:44;99055.34;;;-1.12;100.00
25658;BME280;13517;59.320;18.042;2023-12-20T01:33:10;99011.66;;;-1.43;100.00
25658;BME280;13517;59.320;18.042;2023-12-20T01:35:35;99035.09;;;-1.33;100.00
25658;BME280;13517;59.320;18.042;2023-12-20T01:38:00;99024.44;;;-1.32;100.00
25658;BME280;13517;59.320;18.042;2023-12-20T01:40:26;99035.50;;;-1.22;100.00
25658;BME280;13517;59.320;18.042;2023-12-20T01:43:02;99043.66;;;-1.27;100.00
25658;BME280;13517;59.320;18.042;2023-12-20T01:45:28;99040.19;;;-1.29;100.00
25658;BME280;13517;59.320;18.042;2023-12-20T01:47:55;99023.19;;;-1.44;100.00
25658;BME280;13517;59.320;18.042;2023-12-20T01:50:21;98999.13;;;-1.60;100.00
25658;BME280;13517;59.320;18.042;2023-12-20T01:52:47;99011.31;;;-1.56;100.00
25658;BME280;13517;59.320;18.042;2023-12-20T01:55:13;99023.91;;;-1.40;100.00
25658;BME280;13517;59.320;18.042;2023-12-20T01:57:43;98994.63;;;-1.58;100.00
25658;BME280;13517;59.320;18.042;2023-12-20T02:00:11;99029.06;;;-1.37;100.00
25658;BME280;13517;59.320;18.042;2023-12-20T02:02:39;99030.97;;;-1.41;100.00
25658;BME280;13517;59.320;18.042;2023-12-20T02:05:08;99022.56;;;-1.51;100.00
25658;BME280;13517;59.320;18.042;2023-12-20T02:07:34;98995.69;;;-1.62;100.00
25658;BME280;13517;59.320;18.042;2023-12-20T02:10:02;99035.53;;;-1.44;100.00
25658;BME280;13517;59.320;18.042;2023-12-20T02:12:29;99003.38;;;-1.56;100.00
25658;BME280;13517;59.320;18.042;2023-12-20T02:14:55;99001.53;;;-1.54;100.00
25658;BME280;13517;59.320;18.042;2023-12-20T02:17:20;99028.28;;;-1.39;100.00
25658;BME280;13517;59.320;18.042;2023-12-20T02:19:46;99031.75;;;-1.39;100.00
25658;BME280;13517;59.320;18.042;2023-12-20T02:22:12;98994.56;;;-1.56;100.00
25658;BME280;13517;59.320;18.042;2023-12-20T02:24:38;99021.31;;;-1.42;100.00
25658;BME280;13517;59.320;18.042;2023-12-20T02:27:05;99001.31;;;-1.49;100.00
25658;BME280;13517;59.320;18.042;2023-12-20T02:29:32;99008.53;;;-1.32;100.00
25658;BME280;13517;59.320;18.042;2023-12-20T02:31:58;99005.88;;;-1.32;100.00
25658;BME280;13517;59.320;18.042;2023-12-20T02:34:23;99004.81;;;-1.28;100.00
25658;BME280;13517;59.320;18.042;2023-12-20T02:36:48;98972.91;;;-1.45;100.00
25658;BME280;13517;59.320;18.042;2023-12-20T02:39:14;99001.16;;;-1.25;100.00
25658;BME280;13517;59.320;18.042;2023-12-20T02:41:39;98982.88;;;-1.31;100.00
25658;BME280;13517;59.320;18.042;2023-12-20T02:44:04;99002.72;;;-1.19;100.00
25658;BME280;13517;59.320;18.042;2023-12-20T02:46:30;98991.25;;;-1.20;100.00
25658;BME280;13517;59.320;18.042;2023-12-20T02:48:55;98999.13;;;-1.18;100.00
25658;BME280;13517;59.320;18.042;2023-12-20T02:51:21;98994.66;;;-1.18;100.00
25658;BME280;13517;59.320;18.042;2023-12-20T02:53:46;98993.88;;;-1.20;100.00
25658;BME280;13517;59.320;18.042;2023-12-20T02:56:11;98891.25;;;-1.75;100.00
25658;BME280;13517;59.320;18.042;2023-12-20T02:58:37;98965.28;;;-1.32;100.00
25658;BME280;13517;59.320;18.042;2023-12-20T03:01:03;98968.53;;;-1.26;100.00
25658;BME280;13517;59.320;18.042;2023-12-20T03:03:28;98952.91;;;-1.32;100.00
25658;BME280;13517;59.320;18.042;2023-12-20T03:05:53;98968.59;;;-1.27;100.00
25658;BME280;13517;59.320;18.042;2023-12-20T03:08:19;98964.81;;;-1.21;100.00
25658;BME280;13517;59.320;18.042;2023-12-20T03:10:44;98978.88;;;-1.19;100.00
25658;BME280;13517;59.320;18.042;2023-12-20T03:13:10;98984.94;;;-1.17;100.00
25658;BME280;13517;59.320;18.042;2023-12-20T03:15:35;98990.09;;;-1.14;100.00
25658;BME280;13517;59.320;18.042;2023-12-20T03:18:01;98965.88;;;-1.26;100.00
25658;BME280;13517;59.320;18.042;2023-12-20T03:20:26;98954.56;;;-1.29;100.00
25658;BME280;13517;59.320;18.042;2023-12-20T03:22:52;98944.53;;;-1.23;100.00
25658;BME280;13517;59.320;18.042;2023-12-20T03:25:17;98978.28;;;-1.07;100.00
25658;BME280;13517;59.320;18.042;2023-12-20T03:27:42;98963.31;;;-1.08;100.00
25658;BME280;13517;59.320;18.042;2023-12-20T03:30:08;98962.28;;;-1.04;100.00
25658;BME280;13517;59.320;18.042;2023-12-20T03:32:34;98962.22;;;-1.02;100.00
25658;BME280;13517;59.320;18.042;2023-12-20T03:34:59;98961.34;;;-1.03;100.00
25658;BME280;13517;59.320;18.042;2023-12-20T03:37:25;98947.16;;;-1.02;100.00
25658;BME280;13517;59.320;18.042;2023-12-20T03:39:50;98950.72;;;-1.03;100.00
25658;BME280;13517;59.320;18.042;2023-12-20T03:42:16;98947.03;;;-0.99;100.00
25658;BME280;13517;59.320;18.042;2023-12-20T03:44:41;98940.69;;;-0.96;100.00
25658;BME280;13517;59.320;18.042;2023-12-20T03:47:07;98893.09;;;-1.17;100.00
25658;BME280;13517;59.320;18.042;2023-12-20T03:49:33;98939.78;;;-0.95;100.00
25658;BME280;13517;59.320;18.042;2023-12-20T03:51:58;98931.69;;;-0.92;100.00
25658;BME280;13517;59.320;18.042;2023-12-20T03:54:24;98939.63;;;-0.92;100.00
25658;BME280;13517;59.320;18.042;2023-12-20T03:56:49;98939.41;;;-0.87;100.00
25658;BME280;13517;59.320;18.042;2023-12-20T03:59:15;98942.72;;;-0.82;100.00
25658;BME280;13517;59.320;18.042;2023-12-20T04:01:44;98922.03;;;-0.93;100.00
25658;BME280;13517;59.320;18.042;2023-12-20T04:04:13;98953.31;;;-0.82;100.00
25658;BME280;13517;59.320;18.042;2023-12-20T04:06:38;98937.63;;;-0.87;100.00
25658;BME280;13517;59.320;18.042;2023-12-20T04:09:04;98934.19;;;-0.89;100.00
25658;BME280;13517;59.320;18.042;2023-12-20T04:11:29;98955.63;;;-0.74;100.00
25658;BME280;13517;59.320;18.042;2023-12-20T04:13:55;98947.59;;;-0.73;100.00
25658;BME280;13517;59.320;18.042;2023-12-20T04:16:20;98950.13;;;-0.70;100.00
25658;BME280;13517;59.320;18.042;2023-12-20T04:18:46;98957.91;;;-0.66;100.00
25658;BME280;13517;59.320;18.042;2023-12-20T04:21:11;98961.34;;;-0.64;100.00
25658;BME280;13517;59.320;18.042;2023-12-20T04:23:37;98947.47;;;-0.70;100.00
25658;BME280;13517;59.320;18.042;2023-12-20T04:26:02;98954.31;;;-0.65;100.00
25658;BME280;13517;59.320;18.042;2023-12-20T04:28:27;98944.00;;;-0.72;100.00
25658;BME280;13517;59.320;18.042;2023-12-20T04:30:55;98959.63;;;-0.65;100.00
25658;BME280;13517;59.320;18.042;2023-12-20T04:33:21;98934.06;;;-0.86;100.00
25658;BME280;13517;59.320;18.042;2023-12-20T04:35:47;98921.97;;;-0.91;100.00
25658;BME280;13517;59.320;18.042;2023-12-20T04:38:13;98943.59;;;-0.81;100.00
25658;BME280;13517;59.320;18.042;2023-12-20T04:40:38;98940.72;;;-0.77;100.00
25658;BME280;13517;59.320;18.042;2023-12-20T04:43:06;98950.41;;;-0.76;100.00
25658;BME280;13517;59.320;18.042;2023-12-20T04:45:31;98933.84;;;-0.81;100.00
25658;BME280;13517;59.320;18.042;2023-12-20T04:47:57;98922.06;;;-0.75;100.00
25658;BME280;13517;59.320;18.042;2023-12-20T04:50:22;98920.34;;;-0.76;100.00
25658;BME280;13517;59.320;18.042;2023-12-20T04:52:47;98930.19;;;-0.78;100.00
25658;BME280;13517;59.320;18.042;2023-12-20T04:55:13;98928.47;;;-0.79;100.00
25658;BME280;13517;59.320;18.042;2023-12-20T04:57:39;98881.97;;;-1.06;100.00
25658;BME280;13517;59.320;18.042;2023-12-20T05:00:05;98925.94;;;-0.83;100.00
25658;BME280;13517;59.320;18.042;2023-12-20T05:02:31;98913.78;;;-0.87;100.00
25658;BME280;13517;59.320;18.042;2023-12-20T05:04:56;98902.19;;;-0.84;100.00
25658;BME280;13517;59.320;18.042;2023-12-20T05:07:21;98885.69;;;-0.91;100.00
25658;BME280;13517;59.320;18.042;2023-12-20T05:09:47;98882.03;;;-0.88;100.00
25658;BME280;13517;59.320;18.042;2023-12-20T05:12:12;98898.84;;;-0.70;100.00
25658;BME280;13517;59.320;18.042;2023-12-20T05:14:38;98873.16;;;-0.87;100.00
25658;BME280;13517;59.320;18.042;2023-12-20T05:17:03;98895.44;;;-0.72;100.00
25658;BME280;13517;59.320;18.042;2023-12-20T05:19:29;98877.44;;;-0.85;100.00
25658;BME280;13517;59.320;18.042;2023-12-20T05:21:54;98886.13;;;-0.81;100.00
25658;BME280;13517;59.320;18.042;2023-12-20T05:24:19;98863.94;;;-0.98;100.00
25658;BME280;13517;59.320;18.042;2023-12-20T05:26:45;98901.25;;;-0.83;100.00
25658;BME280;13517;59.320;18.042;2023-12-20T05:29:10;98883.75;;;-0.87;100.00
25658;BME280;13517;59.320;18.042;2023-12-20T05:31:35;98881.88;;;-0.85;100.00
25658;BME280;13517;59.320;18.042;2023-12-20T05:34:01;98874.72;;;-0.83;100.00
25658;BME280;13517;59.320;18.042;2023-12-20T05:36:26;98864.72;;;-0.96;100.00
25658;BME280;13517;59.320;18.042;2023-12-20T05:38:52;98866.28;;;-0.91;100.00
25658;BME280;13517;59.320;18.042;2023-12-20T05:41:18;98871.06;;;-1.00;100.00
25658;BME280;13517;59.320;18.042;2023-12-20T05:43:43;98897.88;;;-0.87;100.00
25658;BME280;13517;59.320;18.042;2023-12-20T05:46:11;98890.00;;;-0.88;100.00
25658;BME280;13517;59.320;18.042;2023-12-20T05:48:38;98862.63;;;-1.08;100.00
25658;BME280;13517;59.320;18.042;2023-12-20T05:51:03;98879.38;;;-0.88;100.00
25658;BME280;13517;59.320;18.042;2023-12-20T05:53:29;98875.50;;;-0.81;100.00
25658;BME280;13517;59.320;18.042;2023-12-20T05:55:54;98858.44;;;-0.75;100.00
25658;BME280;13517;59.320;18.042;2023-12-20T05:58:20;98851.59;;;-0.79;100.00
25658;BME280;13517;59.320;18.042;2023-12-20T06:00:45;98864.63;;;-0.75;100.00
25658;BME280;13517;59.320;18.042;2023-12-20T06:03:11;98876.88;;;-0.72;100.00
25658;BME280;13517;59.320;18.042;2023-12-20T06:05:36;98840.69;;;-0.92;100.00
25658;BME280;13517;59.320;18.042;2023-12-20T06:08:01;98870.56;;;-0.70;100.00
25658;BME280;13517;59.320;18.042;2023-12-20T06:10:28;98862.59;;;-0.70;100.00
25658;BME280;13517;59.320;18.042;2023-12-20T06:12:54;98857.31;;;-0.70;100.00
25658;BME280;13517;59.320;18.042;2023-12-20T06:15:21;98864.81;;;-0.60;100.00
25658;BME280;13517;59.320;18.042;2023-12-20T06:17:47;98836.09;;;-0.70;100.00
25658;BME280;13517;59.320;18.042;2023-12-20T06:20:12;98841.72;;;-0.58;100.00
25658;BME280;13517;59.320;18.042;2023-12-20T06:22:38;98816.03;;;-0.75;100.00
25658;BME280;13517;59.320;18.042;2023-12-20T06:25:04;98830.41;;;-0.62;100.00
25658;BME280;13517;59.320;18.042;2023-12-20T06:27:29;98838.81;;;-0.53;100.00
25658;BME280;13517;59.320;18.042;2023-12-20T06:29:55;98826.59;;;-0.56;100.00
25658;BME280;13517;59.320;18.042;2023-12-20T06:32:21;98848.28;;;-0.48;100.00
25658;BME280;13517;59.320;18.042;2023-12-20T06:34:48;98838.38;;;-0.44;100.00
25658;BME280;13517;59.320;18.042;2023-12-20T06:37:14;98819.25;;;-0.51;100.00
25658;BME280;13517;59.320;18.042;2023-12-20T06:39:40;98834.56;;;-0.38;100.00
25658;BME280;13517;59.320;18.042;2023-12-20T06:42:05;98796.50;;;-0.55;100.00
25658;BME280;13517;59.320;18.042;2023-12-20T06:44:31;98826.06;;;-0.28;100.00
25658;BME280;13517;59.320;18.042;2023-12-20T06:46:57;98828.47;;;-0.23;100.00
25658;BME280;13517;59.320;18.042;2023-12-20T06:49:22;98815.06;;;-0.20;100.00
25658;BME280;13517;59.320;18.042;2023-12-20T06:51:48;98794.47;;;-0.32;100.00
25658;BME280;13517;59.320;18.042;2023-12-20T06:54:13;98820.97;;;-0.15;100.00
25658;BME280;13517;59.320;18.042;2023-12-20T06:56:39;98819.19;;;-0.14;100.00
25658;BME280;13517;59.320;18.042;2023-12-20T06:59:04;98816.53;;;-0.14;100.00
25658;BME280;13517;59.320;18.042;2023-12-20T07:01:30;98820.84;;;-0.11;100.00
25658;BME280;13517;59.320;18.042;2023-12-20T07:03:55;98825.19;;;-0.10;100.00
25658;BME280;13517;59.320;18.042;2023-12-20T07:06:20;98798.50;;;-0.25;100.00
25658;BME280;13517;59.320;18.042;2023-12-20T07:08:46;98790.78;;;-0.30;100.00
25658;BME280;13517;59.320;18.042;2023-12-20T07:11:11;98794.16;;;-0.26;100.00
25658;BME280;13517;59.320;18.042;2023-12-20T07:13:37;98824.25;;;-0.09;100.00
25658;BME280;13517;59.320;18.042;2023-12-20T07:16:02;98821.59;;;-0.09;100.00
25658;BME280;13517;59.320;18.042;2023-12-20T07:18:28;98826.59;;;-0.03;100.00
25658;BME280;13517;59.320;18.042;2023-12-20T07:20:54;98799.59;;;-0.11;100.00
25658;BME280;13517;59.320;18.042;2023-12-20T07:23:20;98807.41;;;-0.08;100.00
25658;BME280;13517;59.320;18.042;2023-12-20T07:25:46;98831.41;;;0.06;100.00
25658;BME280;13517;59.320;18.042;2023-12-20T07:28:12;98823.31;;;0.09;100.00
25658;BME280;13517;59.320;18.042;2023-12-20T07:30:37;98820.97;;;0.03;100.00
25658;BME280;13517;59.320;18.042;2023-12-20T07:33:03;98818.00;;;0.09;100.00
25658;BME280;13517;59.320;18.042;2023-12-20T07:35:29;98804.09;;;0.04;100.00
25658;BME280;13517;59.320;18.042;2023-12-20T07:37:54;98810.28;;;0.05;100.00
25658;BME280;13517;59.320;18.042;2023-12-20T07:40:19;98778.13;;;-0.07;100.00
25658;BME280;13517;59.320;18.042;2023-12-20T07:42:45;98811.56;;;0.13;100.00
25658;BME280;13517;59.320;18.042;2023-12-20T07:45:10;98798.31;;;0.13;100.00
25658;BME280;13517;59.320;18.042;2023-12-20T07:47:37;98794.81;;;0.13;100.00
25658;BME280;13517;59.320;18.042;2023-12-20T07:50:02;98786.91;;;0.11;100.00
25658;BME280;13517;59.320;18.042;2023-12-20T07:52:29;98783.94;;;0.18;100.00
25658;BME280;13517;59.320;18.042;2023-12-20T07:54:54;98778.44;;;0.21;100.00
25658;BME280;13517;59.320;18.042;2023-12-20T07:57:20;98767.75;;;0.22;100.00
25658;BME280;13517;59.320;18.042;2023-12-20T07:59:46;98745.88;;;0.01;100.00
25658;BME280;13517;59.320;18.042;2023-12-20T08:02:11;98777.75;;;0.17;100.00
25658;BME280;13517;59.320;18.042;2023-12-20T08:04:37;98751.19;;;0.01;100.00
25658;BME280;13517;59.320;18.042;2023-12-20T08:07:03;98772.69;;;0.12;100.00
25658;BME280;13517;59.320;18.042;2023-12-20T08:09:28;98778.81;;;0.15;100.00
25658;BME280;13517;59.320;18.042;2023-12-20T08:11:54;98769.09;;;0.13;100.00
25658;BME280;13517;59.320;18.042;2023-12-20T08:14:19;98775.97;;;0.18;100.00
25658;BME280;13517;59.320;18.042;2023-12-20T08:16:45;98763.72;;;0.15;100.00
25658;BME280;13517;59.320;18.042;2023-12-20T08:19:10;98768.94;;;0.17;100.00
25658;BME280;13517;59.320;18.042;2023-12-20T08:21:35;98743.22;;;0.01;100.00
25658;BME280;13517;59.320;18.042;2023-12-20T08:24:01;98761.13;;;0.13;100.00
25658;BME280;13517;59.320;18.042;2023-12-20T08:26:26;98735.25;;;0.01;100.00
25658;BME280;13517;59.320;18.042;2023-12-20T08:28:52;98738.50;;;0.06;100.00
25658;BME280;13517;59.320;18.042;2023-12-20T08:31:18;98745.44;;;0.09;100.00
25658;BME280;13517;59.320;18.042;2023-12-20T08:33:48;98754.28;;;0.09;100.00
25658;BME280;13517;59.320;18.042;2023-12-20T08:36:13;98765.06;;;0.06;100.00
25658;BME280;13517;59.320;18.042;2023-12-20T08:38:39;98721.50;;;-0.07;100.00
25658;BME280;13517;59.320;18.042;2023-12-20T08:41:05;98760.13;;;0.16;100.00
25658;BME280;13517;59.320;18.042;2023-12-20T08:43:31;98756.50;;;0.17;100.00
25658;BME280;13517;59.320;18.042;2023-12-20T08:45:57;98738.19;;;0.12;100.00
25658;BME280;13517;59.320;18.042;2023-12-20T08:48:23;98729.44;;;0.10;100.00
25658;BME280;13517;59.320;18.042;2023-12-20T08:50:48;98716.25;;;0.09;100.00
25658;BME280;13517;59.320;18.042;2023-12-20T08:53:18;98742.50;;;0.31;100.00
25658;BME280;13517;59.320;18.042;2023-12-20T08:55:44;98752.63;;;0.40;100.00
25658;BME280;13517;59.320;18.042;2023-12-20T08:58:09;98732.72;;;0.32;100.00
25658;BME280;13517;59.320;18.042;2023-12-20T09:00:35;98742.31;;;0.34;100.00
25658;BME280;13517;59.320;18.042;2023-12-20T09:03:01;98699.31;;;0.11;100.00
25658;BME280;13517;59.320;18.042;2023-12-20T09:05:27;98710.97;;;0.25;100.00
25658;BME280;13517;59.320;18.042;2023-12-20T09:07:53;98747.50;;;0.53;100.00
25658;BME280;13517;59.320;18.042;2023-12-20T09:10:18;98735.06;;;0.54;100.00
25658;BME280;13517;59.320;18.042;2023-12-20T09:12:50;98707.56;;;0.55;100.00
25658;BME280;13517;59.320;18.042;2023-12-20T09:15:15;98735.00;;;0.72;100.00
25658;BME280;13517;59.320;18.042;2023-12-20T09:17:41;98730.38;;;0.75;100.00
25658;BME280;13517;59.320;18.042;2023-12-20T09:23:28;98714.50;;;0.74;100.00
25658;BME280;13517;59.320;18.042;2023-12-20T09:25:54;98689.56;;;0.60;100.00
25658;BME280;13517;59.320;18.042;2023-12-20T09:28:19;98719.13;;;0.86;100.00
25658;BME280;13517;59.320;18.042;2023-12-20T09:30:45;98688.88;;;0.73;100.00
25658;BME280;13517;59.320;18.042;2023-12-20T09:33:11;98649.28;;;0.52;100.00
25658;BME280;13517;59.320;18.042;2023-12-20T09:35:37;98627.03;;;0.38;100.00
25658;BME280;13517;59.320;18.042;2023-12-20T09:38:02;98639.88;;;0.46;100.00
25658;BME280;13517;59.320;18.042;2023-12-20T09:40:28;98680.19;;;0.85;100.00
25658;BME280;13517;59.320;18.042;2023-12-20T09:42:58;98547.03;;;0.12;100.00
25658;BME280;13517;59.320;18.042;2023-12-20T09:45:27;98676.81;;;0.98;100.00
25658;BME280;13517;59.320;18.042;2023-12-20T09:47:53;98655.91;;;0.91;100.00
25658;BME280;13517;59.320;18.042;2023-12-20T09:50:20;98624.75;;;0.79;100.00
25658;BME280;13517;59.320;18.042;2023-12-20T09:52:50;98628.91;;;0.83;100.00
25658;BME280;13517;59.320;18.042;2023-12-20T09:55:20;98660.81;;;1.14;100.00
25658;BME280;13517;59.320;18.042;2023-12-20T09:57:47;98625.47;;;0.97;100.00
25658;BME280;13517;59.320;18.042;2023-12-20T10:00:14;98648.94;;;1.19;100.00
25658;BME280;13517;59.320;18.042;2023-12-20T10:02:45;98452.00;;;0.03;100.00
25658;BME280;13517;59.320;18.042;2023-12-20T10:05:16;98638.97;;;1.23;100.00
25658;BME280;13517;59.320;18.042;2023-12-20T10:07:45;98596.09;;;0.99;100.00
25658;BME280;13517;59.320;18.042;2023-12-20T10:10:13;98637.00;;;1.27;100.00
25658;BME280;13517;59.320;18.042;2023-12-20T10:12:38;98597.38;;;1.07;100.00
25658;BME280;13517;59.320;18.042;2023-12-20T10:15:05;98588.03;;;1.00;100.00
25658;BME280;13517;59.320;18.042;2023-12-20T10:17:31;98617.72;;;1.23;100.00
25658;BME280;13517;59.320;18.042;2023-12-20T10:19:57;98611.94;;;1.31;100.00
25658;BME280;13517;59.320;18.042;2023-12-20T10:22:23;98608.59;;;1.27;100.00
25658;BME280;13517;59.320;18.042;2023-12-20T10:24:48;98550.34;;;0.93;100.00
25658;BME280;13517;59.320;18.042;2023-12-20T10:27:14;98523.94;;;0.90;100.00
25658;BME280;13517;59.320;18.042;2023-12-20T10:29:39;98543.34;;;1.07;100.00
25658;BME280;13517;59.320;18.042;2023-12-20T10:32:24;98589.53;;;1.35;100.00
25658;BME280;13517;59.320;18.042;2023-12-20T10:34:51;98488.81;;;0.85;100.00
25658;BME280;13517;59.320;18.042;2023-12-20T10:37:16;98557.88;;;1.30;100.00
25658;BME280;13517;59.320;18.042;2023-12-20T10:39:42;98544.97;;;1.24;100.00
25658;BME280;13517;59.320;18.042;2023-12-20T10:42:11;98566.34;;;1.37;100.00
25658;BME280;13517;59.320;18.042;2023-12-20T10:44:37;98566.34;;;1.37;100.00
25658;BME280;13517;59.320;18.042;2023-12-20T10:47:03;98561.88;;;1.38;100.00
25658;BME280;13517;59.320;18.042;2023-12-20T10:49:30;98524.91;;;1.18;100.00
25658;BME280;13517;59.320;18.042;2023-12-20T10:51:58;98552.97;;;1.39;100.00
25658;BME280;13517;59.320;18.042;2023-12-20T10:54:25;98523.50;;;1.27;100.00
25658;BME280;13517;59.320;18.042;2023-12-20T10:56:52;98553.41;;;1.45;100.00
25658;BME280;13517;59.320;18.042;2023-12-20T10:59:20;98542.41;;;1.37;100.00
25658;BME280;13517;59.320;18.042;2023-12-20T11:01:48;98513.44;;;1.18;100.00
25658;BME280;13517;59.320;18.042;2023-12-20T11:04:20;98439.25;;;0.70;100.00
25658;BME280;13517;59.320;18.042;2023-12-20T11:06:52;98534.50;;;1.21;100.00
25658;BME280;13517;59.320;18.042;2023-12-20T11:09:25;98532.13;;;1.31;100.00
25658;BME280;13517;59.320;18.042;2023-12-20T11:12:07;98523.97;;;1.34;100.00
25658;BME280;13517;59.320;18.042;2023-12-20T11:14:45;98519.22;;;1.25;100.00
25658;BME280;13517;59.320;18.042;2023-12-20T11:17:11;98470.22;;;1.00;100.00
25658;BME280;13517;59.320;18.042;2023-12-20T11:22:24;98511.63;;;1.33;100.00
25658;BME280;13517;59.320;18.042;2023-12-20T11:24:52;98501.47;;;1.25;100.00
25658;BME280;13517;59.320;18.042;2023-12-20T11:27:21;98483.69;;;1.11;100.00
25658;BME280;13517;59.320;18.042;2023-12-20T11:29:58;98488.34;;;1.22;100.00
25658;BME280;13517;59.320;18.042;2023-12-20T11:34:56;98484.06;;;1.19;100.00
25658;BME280;13517;59.320;18.042;2023-12-20T11:37:29;98483.03;;;1.22;100.00
25658;BME280;13517;59.320;18.042;2023-12-20T11:40:06;98412.88;;;0.81;100.00
25658;BME280;13517;59.320;18.042;2023-12-20T11:42:33;98448.47;;;1.07;100.00
25658;BME280;13517;59.320;18.042;2023-12-20T11:45:03;98441.91;;;1.13;100.00
25658;BME280;13517;59.320;18.042;2023-12-20T11:47:30;98399.59;;;0.81;100.00
25658;BME280;13517;59.320;18.042;2023-12-20T11:49:56;98452.81;;;1.23;100.00
25658;BME280;13517;59.320;18.042;2023-12-20T11:52:22;98422.75;;;1.08;100.00
25658;BME280;13517;59.320;18.042;2023-12-20T11:54:47;98396.91;;;0.95;100.00
25658;BME280;13517;59.320;18.042;2023-12-20T11:57:13;98462.97;;;1.31;100.00
25658;BME280;13517;59.320;18.042;2023-12-20T11:59:38;98422.38;;;1.14;100.00
25658;BME280;13517;59.320;18.042;2023-12-20T12:02:04;98436.03;;;1.22;100.00
25658;BME280;13517;59.320;18.042;2023-12-20T12:04:30;98392.34;;;0.98;100.00
25658;BME280;13517;59.320;18.042;2023-12-20T12:06:56;98381.06;;;0.94;100.00
25658;BME280;13517;59.320;18.042;2023-12-20T12:09:21;98447.13;;;1.29;100.00
25658;BME280;13517;59.320;18.042;2023-12-20T12:11:47;98399.13;;;1.03;100.00
25658;BME280;13517;59.320;18.042;2023-12-20T12:14:12;98396.03;;;1.09;100.00
25658;BME280;13517;59.320;18.042;2023-12-20T12:16:38;98437.34;;;1.30;100.00
25658;BME280;13517;59.320;18.042;2023-12-20T12:19:03;98403.34;;;1.06;100.00
25658;BME280;13517;59.320;18.042;2023-12-20T12:21:29;98425.66;;;1.32;100.00
25658;BME280;13517;59.320;18.042;2023-12-20T12:24:08;98409.16;;;1.13;100.00
25658;BME280;13517;59.320;18.042;2023-12-20T12:26:34;98399.94;;;1.04;100.00
25658;BME280;13517;59.320;18.042;2023-12-20T12:29:00;98412.38;;;1.18;100.00
25658;BME280;13517;59.320;18.042;2023-12-20T12:31:25;98410.19;;;1.10;100.00
25658;BME280;13517;59.320;18.042;2023-12-20T12:33:51;98417.88;;;1.15;100.00
25658;BME280;13517;59.320;18.042;2023-12-20T12:36:17;98384.09;;;0.88;100.00
25658;BME280;13517;59.320;18.042;2023-12-20T12:38:43;98371.97;;;0.84;100.00
25658;BME280;13517;59.320;18.042;2023-12-20T12:41:09;98390.06;;;0.91;100.00
25658;BME280;13517;59.320;18.042;2023-12-20T12:43:35;98248.66;;;0.01;100.00
25658;BME280;13517;59.320;18.042;2023-12-20T12:46:01;98356.50;;;0.61;100.00